Time;durP1;ratioP1;P1;durP2;ratioP2;P2;SDS_P1;SDS_P2;PMS_P1;PMS_P2;Temp;Humidity;BMP_temperature;BMP_pressure;BME280_temperature;BME280_humidity;BME280_pressure;Samples;Min_cycle;Max_cycle;Signal;HPM_P1;HPM_P2
2022/10/18 00:01:04;;;;;;;;;;;9.20;99.90;;;;;;4981224;28;19920;-68
2022/10/18 00:03:30;;;;;;;;;;;9.20;99.90;;;;;;4981274;28;19933;-67
2022/10/18 00:05:56;;;;;;;;;;;9.30;99.90;;;;;;4973133;28;19910;-67
2022/10/18 00:08:21;;;;;;;;;;;9.30;99.90;;;;;;4974704;28;19914;-67
2022/10/18 00:10:47;;;;;;;;;;;9.30;99.90;;;;;;4993971;28;20361;-67
2022/10/18 00:13:12;;;;;;;;;;;9.30;99.90;;;;;;4982710;28;20354;-67
2022/10/18 00:15:38;;;;;;;;;;;9.30;99.90;;;;;;4989658;28;19910;-66
2022/10/18 00:18:04;;;;;;;;;;;9.20;99.90;;;;;;4984746;28;19959;-67
2022/10/18 00:20:29;;;;;;;;;;;9.20;99.90;;;;;;4991087;28;20012;-67
2022/10/18 00:22:55;;;;;;;;;;;9.20;99.90;;;;;;4979041;28;19910;-67
2022/10/18 00:25:21;;;;;;;;;;;9.20;99.90;;;;;;4984424;28;20461;-67
2022/10/18 00:27:46;;;;;;;;;;;9.00;99.90;;;;;;4990647;28;20012;-67
2022/10/18 00:30:12;;;;;;;;;;;9.00;99.90;;;;;;4982428;28;19918;-67
2022/10/18 00:32:38;;;;;;;;;;;9.00;99.90;;;;;;4981778;28;19965;-67
2022/10/18 00:35:05;;;;;;;;;;;9.00;99.90;;;;;;4980664;28;19956;-67
2022/10/18 00:37:30;;;;;;;;;;;9.00;99.90;;;;;;4989621;28;19910;-67
2022/10/18 00:39:56;;;;;;;;;;;8.90;99.90;;;;;;4984994;28;19918;-67
2022/10/18 00:42:23;;;;;;;;;;;8.90;99.90;;;;;;4987110;28;19957;-67
2022/10/18 00:44:48;;;;;;;;;;;8.90;99.90;;;;;;4978652;28;20290;-68
2022/10/18 00:47:15;;;;;;;;;;;8.90;99.90;;;;;;4985028;28;19910;-68
2022/10/18 00:49:49;;;;;;;;;;;9.00;99.90;;;;;;4993444;28;19910;-67
2022/10/18 00:52:17;;;;;;;;;;;9.10;99.90;;;;;;4976350;28;19964;-68
2022/10/18 00:54:44;;;;;;;;;;;8.90;99.90;;;;;;4984851;28;19953;-67
2022/10/18 00:57:10;;;;;;;;;;;9.00;99.90;;;;;;4977081;28;19925;-67
2022/10/18 00:59:36;;;;;;;;;;;9.00;99.90;;;;;;4991853;28;19914;-67
2022/10/18 01:02:02;;;;;;;;;;;9.10;99.90;;;;;;4985619;28;19965;-67
2022/10/18 01:04:28;;;;;;;;;;;9.00;99.90;;;;;;4973592;28;19910;-68
2022/10/18 01:07:11;;;;;;;;;;;9.00;99.90;;;;;;4977634;28;19910;-67
2022/10/18 01:09:37;;;;;;;;;;;8.80;99.90;;;;;;4991929;28;19957;-68
2022/10/18 01:12:20;;;;;;;;;;;8.90;99.90;;;;;;4982131;28;19918;-67
2022/10/18 01:14:45;;;;;;;;;;;8.80;99.90;;;;;;4988591;28;19909;-68
2022/10/18 01:17:12;;;;;;;;;;;8.80;99.90;;;;;;4984285;28;19997;-67
2022/10/18 01:19:46;;;;;;;;;;;8.80;99.90;;;;;;4989052;28;19921;-68
2022/10/18 01:22:20;;;;;;;;;;;9.00;99.90;;;;;;4977573;28;19925;-68
2022/10/18 01:24:48;;;;;;;;;;;9.00;99.90;;;;;;4981636;28;19941;-68
2022/10/18 01:27:31;;;;;;;;;;;8.90;99.90;;;;;;4967411;28;20372;-67
2022/10/18 01:30:15;;;;;;;;;;;8.80;99.90;;;;;;4984832;28;19920;-67
2022/10/18 01:32:49;;;;;;;;;;;8.90;99.90;;;;;;4972791;28;19916;-66
2022/10/18 01:35:18;;;;;;;;;;;8.80;99.90;;;;;;4981436;28;19946;-66
2022/10/18 01:37:46;;;;;;;;;;;8.80;99.90;;;;;;4984171;28;19956;-66
2022/10/18 01:40:13;;;;;;;;;;;8.60;99.90;;;;;;4989517;28;20366;-66
2022/10/18 01:42:38;;;;;;;;;;;8.70;99.90;;;;;;4972908;28;19985;-66
2022/10/18 01:45:06;;;;;;;;;;;8.70;99.90;;;;;;4978693;28;19925;-66
2022/10/18 01:47:33;;;;;;;;;;;8.70;99.90;;;;;;4986924;28;20370;-66
2022/10/18 01:49:59;;;;;;;;;;;8.80;99.90;;;;;;4987618;28;19917;-67
2022/10/18 01:52:25;;;;;;;;;;;8.90;99.90;;;;;;4973640;28;19917;-67
2022/10/18 01:54:51;;;;;;;;;;;8.90;99.90;;;;;;4973765;28;19910;-67
2022/10/18 01:57:17;;;;;;;;;;;8.90;99.90;;;;;;4980256;28;20290;-66
2022/10/18 01:59:45;;;;;;;;;;;8.90;99.90;;;;;;4981038;28;19914;-67
2022/10/18 02:02:23;;;;;;;;;;;9.00;99.90;;;;;;4978353;28;19944;-66
2022/10/18 02:05:04;;;;;;;;;;;9.00;99.90;;;;;;4979842;28;19909;-67
2022/10/18 02:08:00;;;;;;;;;;;9.00;99.90;;;;;;4986060;28;19933;-66
2022/10/18 02:10:41;;;;;;;;;;;8.90;99.90;;;;;;4951981;28;19911;-66
2022/10/18 02:13:08;;;;;;;;;;;8.90;99.90;;;;;;4979312;28;19909;-66
2022/10/18 02:15:36;;;;;;;;;;;8.80;99.90;;;;;;4985148;28;19945;-66
2022/10/18 02:18:04;;;;;;;;;;;8.80;99.90;;;;;;4976825;28;19909;-66
2022/10/18 02:20:31;;;;;;;;;;;8.70;99.90;;;;;;4982009;28;19964;-66
2022/10/18 02:22:58;;;;;;;;;;;8.60;99.90;;;;;;4975391;28;19917;-66
2022/10/18 02:25:26;;;;;;;;;;;8.40;99.90;;;;;;4985003;28;19909;-66
2022/10/18 02:27:52;;;;;;;;;;;8.40;99.90;;;;;;4975875;28;20285;-68
2022/10/18 02:30:19;;;;;;;;;;;8.40;99.90;;;;;;4976732;28;19936;-67
2022/10/18 02:32:57;;;;;;;;;;;8.30;99.90;;;;;;4978694;28;19913;-65
2022/10/18 02:35:35;;;;;;;;;;;8.30;99.90;;;;;;4974763;28;19920;-66
2022/10/18 02:38:01;;;;;;;;;;;8.30;99.90;;;;;;4979652;28;19917;-66
2022/10/18 02:40:27;;;;;;;;;;;8.40;99.90;;;;;;4977123;28;19918;-66
2022/10/18 02:42:54;;;;;;;;;;;8.40;99.90;;;;;;4980706;28;19910;-66
2022/10/18 02:45:19;;;;;;;;;;;8.30;99.90;;;;;;4988157;28;19924;-66
2022/10/18 02:47:46;;;;;;;;;;;8.30;99.90;;;;;;4960325;28;19914;-66
2022/10/18 02:50:12;;;;;;;;;;;8.30;99.90;;;;;;4984811;28;19916;-67
2022/10/18 02:52:37;;;;;;;;;;;8.30;99.90;;;;;;4984376;28;19918;-66
2022/10/18 02:55:04;;;;;;;;;;;8.30;99.90;;;;;;4979531;28;20009;-66
2022/10/18 02:57:29;;;;;;;;;;;8.20;99.90;;;;;;4984715;28;19949;-66
2022/10/18 02:59:55;;;;;;;;;;;8.20;99.90;;;;;;4988418;28;19967;-66
2022/10/18 03:02:21;;;;;;;;;;;8.10;99.90;;;;;;4985632;28;20353;-66
2022/10/18 03:04:47;;;;;;;;;;;8.10;99.90;;;;;;4982444;28;19909;-66
2022/10/18 03:07:12;;;;;;;;;;;8.10;99.90;;;;;;4981932;28;19917;-66
2022/10/18 03:09:38;;;;;;;;;;;8.10;99.90;;;;;;4975788;28;20365;-67
2022/10/18 03:12:04;;;;;;;;;;;8.10;99.90;;;;;;4988763;28;19909;-67
2022/10/18 03:14:29;;;;;;;;;;;8.10;99.90;;;;;;4976753;28;20410;-67
2022/10/18 03:16:55;;;;;;;;;;;8.10;99.90;;;;;;4971465;28;19910;-67
2022/10/18 03:19:21;;;;;;;;;;;8.20;99.90;;;;;;4973043;28;19920;-67
2022/10/18 03:21:46;;;;;;;;;;;8.20;99.90;;;;;;4979216;28;19913;-67
2022/10/18 03:24:12;;;;;;;;;;;8.40;99.90;;;;;;4977289;28;20442;-67
2022/10/18 03:26:37;;;;;;;;;;;8.20;99.90;;;;;;4974774;28;19917;-67
2022/10/18 03:29:03;;;;;;;;;;;8.20;99.90;;;;;;4979538;28;19932;-67
2022/10/18 03:31:29;;;;;;;;;;;8.20;99.90;;;;;;4971859;28;19914;-66
2022/10/18 03:33:55;;;;;;;;;;;8.10;99.90;;;;;;4985242;28;19910;-68
2022/10/18 03:36:21;;;;;;;;;;;8.00;99.90;;;;;;4974628;28;20374;-68
2022/10/18 03:38:46;;;;;;;;;;;8.00;99.90;;;;;;4976939;28;19933;-68
2022/10/18 03:41:12;;;;;;;;;;;7.80;99.90;;;;;;4977280;28;20503;-68
2022/10/18 03:43:37;;;;;;;;;;;7.80;99.90;;;;;;4984321;28;20012;-67
2022/10/18 03:46:03;;;;;;;;;;;7.80;99.90;;;;;;4975351;28;19914;-68
2022/10/18 03:48:29;;;;;;;;;;;7.80;99.90;;;;;;4976117;28;19910;-68
2022/10/18 03:50:55;;;;;;;;;;;7.70;99.90;;;;;;4990706;28;19910;-66
2022/10/18 03:53:21;;;;;;;;;;;7.80;99.90;;;;;;4986469;28;19965;-68
2022/10/18 03:55:51;;;;;;;;;;;7.80;99.90;;;;;;4990142;28;20369;-66
2022/10/18 03:58:17;;;;;;;;;;;7.80;99.90;;;;;;4979130;28;19910;-67
2022/10/18 04:00:42;;;;;;;;;;;7.80;99.90;;;;;;4988193;28;19933;-67
2022/10/18 04:03:08;;;;;;;;;;;7.80;99.90;;;;;;4992425;28;19910;-67
2022/10/18 04:05:35;;;;;;;;;;;7.80;99.90;;;;;;4988706;28;19910;-67
2022/10/18 04:08:01;;;;;;;;;;;7.80;99.90;;;;;;4979863;28;19931;-67
2022/10/18 04:10:27;;;;;;;;;;;7.70;99.90;;;;;;4980997;28;20001;-67
2022/10/18 04:12:52;;;;;;;;;;;7.70;99.90;;;;;;4993069;28;19909;-67
2022/10/18 04:15:19;;;;;;;;;;;7.70;99.90;;;;;;4985623;28;19917;-66
2022/10/18 04:17:44;;;;;;;;;;;7.60;99.90;;;;;;4983694;28;19972;-66
2022/10/18 04:20:10;;;;;;;;;;;7.60;99.90;;;;;;4981299;28;19976;-67
2022/10/18 04:22:36;;;;;;;;;;;7.50;99.90;;;;;;4990740;28;20004;-67
2022/10/18 04:25:02;;;;;;;;;;;7.50;99.90;;;;;;4991339;28;20003;-67
2022/10/18 04:27:27;;;;;;;;;;;7.50;99.90;;;;;;4978999;28;19914;-68
2022/10/18 04:29:53;;;;;;;;;;;7.40;99.90;;;;;;4991148;28;19914;-67
2022/10/18 04:32:18;;;;;;;;;;;7.40;99.90;;;;;;4981820;28;19945;-67
2022/10/18 04:34:44;;;;;;;;;;;7.40;99.90;;;;;;4985921;28;19910;-67
2022/10/18 04:37:09;;;;;;;;;;;7.40;99.90;;;;;;4976342;28;19910;-67
2022/10/18 04:39:35;;;;;;;;;;;7.30;99.90;;;;;;4982261;28;19924;-67
2022/10/18 04:42:00;;;;;;;;;;;7.40;99.90;;;;;;4984495;28;19921;-67
2022/10/18 04:44:26;;;;;;;;;;;7.40;99.90;;;;;;4981578;28;20333;-67
2022/10/18 04:46:52;;;;;;;;;;;7.40;99.90;;;;;;4975009;28;19910;-66
2022/10/18 04:49:17;;;;;;;;;;;7.50;99.90;;;;;;4977488;28;19914;-67
2022/10/18 04:51:43;;;;;;;;;;;7.60;99.90;;;;;;4977213;28;19988;-67
2022/10/18 04:54:08;;;;;;;;;;;7.50;99.90;;;;;;4979179;28;20277;-66
2022/10/18 04:56:34;;;;;;;;;;;7.40;99.90;;;;;;4980814;28;20216;-67
2022/10/18 04:58:59;;;;;;;;;;;7.40;99.90;;;;;;4989616;28;20366;-67
2022/10/18 05:01:25;;;;;;;;;;;7.30;99.90;;;;;;4974922;28;19914;-67
2022/10/18 05:03:52;;;;;;;;;;;7.20;99.90;;;;;;4985845;28;19910;-67
2022/10/18 05:06:18;;;;;;;;;;;7.00;99.90;;;;;;4970583;28;19916;-67
2022/10/18 05:08:44;;;;;;;;;;;7.10;99.90;;;;;;4989734;28;20277;-67
2022/10/18 05:11:09;;;;;;;;;;;7.00;99.90;;;;;;4989634;28;20377;-67
2022/10/18 05:13:37;;;;;;;;;;;7.10;99.90;;;;;;4980725;28;19909;-68
2022/10/18 05:16:03;;;;;;;;;;;7.20;99.90;;;;;;4975626;28;19996;-67
2022/10/18 05:18:28;;;;;;;;;;;7.10;99.90;;;;;;4980270;28;19957;-67
2022/10/18 05:20:54;;;;;;;;;;;7.10;99.90;;;;;;4982628;28;19922;-66
2022/10/18 05:23:20;;;;;;;;;;;7.10;99.90;;;;;;4983221;28;19965;-67
2022/10/18 05:25:46;;;;;;;;;;;7.10;99.90;;;;;;4979785;28;19949;-67
2022/10/18 05:28:11;;;;;;;;;;;7.20;99.90;;;;;;4980962;28;19994;-67
2022/10/18 05:30:38;;;;;;;;;;;7.20;99.90;;;;;;4973925;28;19914;-67
2022/10/18 05:33:03;;;;;;;;;;;7.20;99.90;;;;;;4983367;28;19916;-67
2022/10/18 05:35:29;;;;;;;;;;;7.10;99.90;;;;;;4975153;28;19997;-67
2022/10/18 05:37:54;;;;;;;;;;;7.00;99.90;;;;;;4981563;28;20016;-67
2022/10/18 05:40:20;;;;;;;;;;;7.10;99.90;;;;;;4976135;28;19917;-67
2022/10/18 05:42:46;;;;;;;;;;;7.10;99.90;;;;;;4977625;28;19909;-66
2022/10/18 05:45:12;;;;;;;;;;;7.10;99.90;;;;;;4987914;28;19918;-67
2022/10/18 05:47:37;;;;;;;;;;;7.00;99.90;;;;;;4980009;28;19937;-67
2022/10/18 05:50:03;;;;;;;;;;;7.00;99.90;;;;;;4980163;28;20001;-68
2022/10/18 05:52:29;;;;;;;;;;;7.00;99.90;;;;;;4962467;28;20002;-67
2022/10/18 05:54:55;;;;;;;;;;;7.00;99.90;;;;;;4970052;28;20290;-67
2022/10/18 05:57:21;;;;;;;;;;;7.00;99.90;;;;;;4987129;28;19949;-68
2022/10/18 05:59:46;;;;;;;;;;;7.00;99.90;;;;;;4981526;28;19965;-67
2022/10/18 06:02:12;;;;;;;;;;;7.00;99.90;;;;;;4976243;28;19910;-68
2022/10/18 06:04:37;;;;;;;;;;;7.00;99.90;;;;;;4978494;28;19914;-67
2022/10/18 06:07:07;;;;;;;;;;;7.00;99.90;;;;;;4968007;28;19917;-67
2022/10/18 06:09:33;;;;;;;;;;;7.00;99.90;;;;;;4978383;28;19917;-68
2022/10/18 06:11:59;;;;;;;;;;;6.90;99.90;;;;;;4973083;28;19909;-68
2022/10/18 06:14:24;;;;;;;;;;;6.90;99.90;;;;;;4972712;28;20365;-70
2022/10/18 06:16:50;;;;;;;;;;;7.00;99.90;;;;;;4979342;28;19913;-68
2022/10/18 06:19:15;;;;;;;;;;;7.00;99.90;;;;;;4982907;28;19913;-67
2022/10/18 06:21:42;;;;;;;;;;;7.00;99.90;;;;;;4973012;28;20361;-68
2022/10/18 06:24:07;;;;;;;;;;;7.00;99.90;;;;;;4982074;28;19909;-66
2022/10/18 06:26:32;;;;;;;;;;;7.10;99.90;;;;;;4972315;28;19964;-65
2022/10/18 06:28:58;;;;;;;;;;;7.10;99.90;;;;;;4968911;28;20270;-66
2022/10/18 06:31:23;;;;;;;;;;;7.20;99.90;;;;;;4972864;28;19917;-67
2022/10/18 06:33:49;;;;;;;;;;;7.20;99.90;;;;;;4985639;28;20373;-68
2022/10/18 06:36:16;;;;;;;;;;;7.20;99.90;;;;;;4980491;28;19910;-66
2022/10/18 06:38:42;;;;;;;;;;;7.30;99.90;;;;;;4973926;28;20362;-67
2022/10/18 06:41:07;;;;;;;;;;;7.30;99.90;;;;;;4983683;28;19928;-66
2022/10/18 06:43:33;;;;;;;;;;;7.20;99.90;;;;;;4970194;28;19914;-67
2022/10/18 06:46:00;;;;;;;;;;;7.20;99.90;;;;;;4964051;28;21407;-67
2022/10/18 06:48:26;;;;;;;;;;;7.10;99.90;;;;;;4971352;28;19917;-67
2022/10/18 06:50:52;;;;;;;;;;;7.10;99.90;;;;;;4971457;28;19914;-67
2022/10/18 06:53:18;;;;;;;;;;;7.10;99.90;;;;;;4971790;28;19961;-67
2022/10/18 06:55:43;;;;;;;;;;;7.10;99.90;;;;;;4969615;28;19918;-67
2022/10/18 06:58:09;;;;;;;;;;;7.10;99.90;;;;;;4991396;28;19966;-67
2022/10/18 07:00:34;;;;;;;;;;;7.10;99.90;;;;;;4973392;28;19972;-67
2022/10/18 07:03:00;;;;;;;;;;;7.00;99.90;;;;;;4966919;28;20005;-67
2022/10/18 07:05:25;;;;;;;;;;;7.00;99.90;;;;;;4975221;28;20004;-67
2022/10/18 07:07:52;;;;;;;;;;;7.10;99.90;;;;;;4969970;28;19916;-67
2022/10/18 07:10:17;;;;;;;;;;;7.10;99.90;;;;;;4981897;28;20008;-68
2022/10/18 07:12:43;;;;;;;;;;;7.10;99.90;;;;;;4970129;28;20016;-67
2022/10/18 07:15:09;;;;;;;;;;;7.20;99.90;;;;;;4982276;28;20028;-68
2022/10/18 07:17:35;;;;;;;;;;;7.30;99.90;;;;;;4970272;28;19917;-67
2022/10/18 07:20:03;;;;;;;;;;;7.30;99.90;;;;;;4976429;28;19918;-67
2022/10/18 07:22:29;;;;;;;;;;;7.30;99.90;;;;;;4981824;28;19913;-67
2022/10/18 07:24:54;;;;;;;;;;;7.30;99.90;;;;;;4978787;28;19910;-66
2022/10/18 07:27:20;;;;;;;;;;;7.30;99.90;;;;;;4982413;28;19957;-67
2022/10/18 07:29:45;;;;;;;;;;;7.40;99.90;;;;;;4985504;28;20250;-66
2022/10/18 07:32:11;;;;;;;;;;;7.40;99.90;;;;;;4974203;28;20278;-68
2022/10/18 07:34:36;;;;;;;;;;;7.50;99.90;;;;;;4981830;28;19916;-67
2022/10/18 07:37:02;;;;;;;;;;;7.50;99.90;;;;;;4972570;28;20651;-68
2022/10/18 07:39:27;;;;;;;;;;;7.60;99.90;;;;;;4980725;28;19914;-68
2022/10/18 07:41:53;;;;;;;;;;;7.70;99.90;;;;;;4970273;28;20021;-67
2022/10/18 07:44:18;;;;;;;;;;;8.00;99.90;;;;;;4993118;23;20293;-60
2022/10/18 07:46:44;;;;;;;;;;;8.00;99.90;;;;;;5006206;28;19970;-60
2022/10/18 07:49:09;;;;;;;;;;;8.00;99.90;;;;;;5007627;28;19932;-60
2022/10/18 07:51:35;;;;;;;;;;;8.10;99.90;;;;;;5004791;28;19909;-61
2022/10/18 07:54:01;;;;;;;;;;;8.10;99.90;;;;;;5006900;28;19933;-60
2022/10/18 07:56:26;;;;;;;;;;;8.10;99.90;;;;;;5002571;28;19916;-61
2022/10/18 07:58:53;;;;;;;;;;;8.10;99.90;;;;;;4998723;28;19916;-60
2022/10/18 08:01:19;;;;;;;;;;;8.10;99.90;;;;;;5013059;28;19917;-61
2022/10/18 08:03:45;;;;;;;;;;;8.30;99.90;;;;;;5013038;28;19916;-60
2022/10/18 08:06:12;;;;;;;;;;;8.30;99.90;;;;;;5013664;28;19913;-60
2022/10/18 08:08:38;;;;;;;;;;;8.50;99.90;;;;;;5008021;28;19916;-59
2022/10/18 08:11:08;;;;;;;;;;;8.50;99.90;;;;;;5003795;28;20522;-59
2022/10/18 08:13:33;;;;;;;;;;;8.60;99.90;;;;;;5005172;28;19909;-60
2022/10/18 08:16:03;;;;;;;;;;;8.60;99.90;;;;;;5009235;28;19932;-60
2022/10/18 08:18:29;;;;;;;;;;;8.60;99.90;;;;;;5015830;28;19909;-60
2022/10/18 08:20:54;;;;;;;;;;;8.70;99.90;;;;;;5005859;28;20648;-60
2022/10/18 08:23:20;;;;;;;;;;;8.70;99.90;;;;;;5003828;28;19913;-60
2022/10/18 08:25:45;;;;;;;;;;;8.90;99.90;;;;;;5001804;28;19917;-61
2022/10/18 08:28:12;;;;;;;;;;;9.00;99.90;;;;;;5003656;28;20401;-60
2022/10/18 08:30:38;;;;;;;;;;;9.10;99.90;;;;;;5012359;28;19951;-60
2022/10/18 08:33:04;;;;;;;;;;;9.40;99.90;;;;;;5005620;28;19964;-60
2022/10/18 08:35:30;;;;;;;;;;;9.70;99.90;;;;;;5005477;28;20024;-60
2022/10/18 08:37:56;;;;;;;;;;;9.90;99.90;;;;;;5017112;28;19909;-62
2022/10/18 08:40:21;;;;;;;;;;;10.00;99.90;;;;;;5014553;28;19984;-61
2022/10/18 08:42:51;;;;;;;;;;;10.00;99.90;;;;;;5007487;28;20267;-61
2022/10/18 08:45:17;;;;;;;;;;;10.20;99.90;;;;;;5003896;28;19949;-61
2022/10/18 08:47:43;;;;;;;;;;;10.30;99.90;;;;;;5002952;28;19960;-61
2022/10/18 08:50:19;;;;;;;;;;;10.40;99.90;;;;;;4998171;28;19913;-61
2022/10/18 08:52:50;;;;;;;;;;;10.40;99.90;;;;;;5006707;28;19921;-61
2022/10/18 08:55:22;;;;;;;;;;;10.50;99.90;;;;;;5005536;28;19979;-61
2022/10/18 08:57:49;;;;;;;;;;;10.60;99.90;;;;;;5003550;28;20387;-62
2022/10/18 09:00:16;;;;;;;;;;;10.70;99.90;;;;;;5013995;28;20375;-62
2022/10/18 09:02:57;;;;;;;;;;;10.80;99.90;;;;;;5006681;28;19918;-61
2022/10/18 09:05:41;;;;;;;;;;;10.90;99.90;;;;;;5003650;28;19949;-61
2022/10/18 09:08:10;;;;;;;;;;;10.90;99.90;;;;;;5002489;28;19917;-62
2022/10/18 09:10:50;;;;;;;;;;;11.00;99.90;;;;;;5001727;28;19956;-61
2022/10/18 09:13:19;;;;;;;;;;;11.10;99.90;;;;;;5000675;28;19913;-61
2022/10/18 09:15:48;;;;;;;;;;;11.20;99.90;;;;;;5007868;28;20005;-62
2022/10/18 09:18:19;;;;;;;;;;;11.30;99.90;;;;;;5000495;28;19913;-62
2022/10/18 09:20:59;;;;;;;;;;;11.30;99.90;;;;;;5004899;28;19929;-61
2022/10/18 09:23:30;;;;;;;;;;;11.40;99.90;;;;;;5006589;28;19916;-61
2022/10/18 09:26:08;;;;;;;;;;;11.40;99.90;;;;;;5002864;28;19967;-62
2022/10/18 09:28:46;;;;;;;;;;;11.50;99.90;;;;;;5001510;28;19913;-63
2022/10/18 09:31:29;;;;;;;;;;;11.50;99.90;;;;;;5004212;28;19955;-63
2022/10/18 09:34:18;;;;;;;;;;;11.60;99.90;;;;;;5007035;28;19924;-62
2022/10/18 09:36:44;;;;;;;;;;;11.70;99.90;;;;;;5007916;28;19918;-62
2022/10/18 09:39:14;;;;;;;;;;;11.80;99.90;;;;;;5002717;28;19914;-62
2022/10/18 09:41:42;;;;;;;;;;;11.90;99.90;;;;;;5007166;28;19909;-62
2022/10/18 09:44:08;;;;;;;;;;;12.00;99.90;;;;;;5010841;28;19947;-63
2022/10/18 09:46:37;;;;;;;;;;;12.20;99.90;;;;;;5004456;28;20058;-61
2022/10/18 09:49:05;;;;;;;;;;;12.30;99.90;;;;;;5006195;28;19910;-62
2022/10/18 09:51:36;;;;;;;;;;;12.50;99.90;;;;;;5007284;28;20026;-62
2022/10/18 09:54:10;;;;;;;;;;;12.60;99.90;;;;;;5004916;28;19909;-62
2022/10/18 09:56:55;;;;;;;;;;;12.80;99.90;;;;;;5001164;28;20345;-62
2022/10/18 09:59:34;;;;;;;;;;;12.90;99.90;;;;;;5009422;28;19929;-63
2022/10/18 10:02:00;;;;;;;;;;;13.10;99.90;;;;;;5006912;28;19909;-62
2022/10/18 10:04:26;;;;;;;;;;;13.30;99.90;;;;;;5000695;28;19967;-62
2022/10/18 10:06:52;;;;;;;;;;;13.40;99.90;;;;;;5010679;28;19909;-62
2022/10/18 10:09:23;;;;;;;;;;;13.60;99.90;;;;;;5005070;28;20003;-62
2022/10/18 10:11:50;;;;;;;;;;;13.60;99.90;;;;;;5004090;28;19993;-62
2022/10/18 10:14:18;;;;;;;;;;;13.70;99.90;;;;;;5004669;28;19916;-62
2022/10/18 10:16:57;;;;;;;;;;;13.80;99.90;;;;;;5004901;28;20046;-62
2022/10/18 10:19:23;;;;;;;;;;;14.00;99.90;;;;;;5000295;28;19928;-62
2022/10/18 10:21:50;;;;;;;;;;;14.00;99.90;;;;;;5005648;28;19918;-62
2022/10/18 10:24:22;;;;;;;;;;;14.10;99.90;;;;;;4999303;28;20028;-62
2022/10/18 10:26:48;;;;;;;;;;;14.20;99.90;;;;;;5007650;28;19992;-63
2022/10/18 10:29:32;;;;;;;;;;;14.30;99.90;;;;;;4999991;28;20036;-62
2022/10/18 10:32:01;;;;;;;;;;;14.50;99.90;;;;;;4998342;28;19910;-60
2022/10/18 10:34:28;;;;;;;;;;;14.60;99.90;;;;;;4999937;28;19934;-62
2022/10/18 10:36:54;;;;;;;;;;;14.70;99.90;;;;;;5003819;28;19925;-61
2022/10/18 10:39:21;;;;;;;;;;;14.80;99.90;;;;;;5003633;28;19964;-62
2022/10/18 10:41:48;;;;;;;;;;;14.90;99.90;;;;;;5010239;28;19944;-62
2022/10/18 10:44:18;;;;;;;;;;;15.00;99.90;;;;;;5005234;28;20409;-61
2022/10/18 10:46:44;;;;;;;;;;;15.30;99.90;;;;;;5000688;28;19917;-60
2022/10/18 10:49:37;;;;;;;;;;;15.50;99.90;;;;;;5015828;28;19909;-64
2022/10/18 10:52:03;;;;;;;;;;;15.80;99.90;;;;;;4999060;28;19989;-63
2022/10/18 10:54:34;;;;;;;;;;;16.00;99.90;;;;;;5003573;28;19963;-63
2022/10/18 10:57:02;;;;;;;;;;;16.20;99.90;;;;;;4995431;28;20738;-62
2022/10/18 10:59:51;;;;;;;;;;;16.40;99.90;;;;;;5006816;28;20004;-62
2022/10/18 11:02:20;;;;;;;;;;;16.60;99.90;;;;;;5004512;28;19940;-63
2022/10/18 11:04:48;;;;;;;;;;;17.10;99.90;;;;;;5000411;28;19944;-63
2022/10/18 11:07:32;;;;;;;;;;;18.00;99.90;;;;;;5003170;28;19916;-62
2022/10/18 11:09:58;;;;;;;;;;;18.70;99.90;;;;;;5002271;28;19964;-63
2022/10/18 11:12:27;;;;;;;;;;;19.30;99.90;;;;;;5005460;28;19913;-62
2022/10/18 11:14:56;;;;;;;;;;;19.80;99.90;;;;;;5002915;28;19956;-63
2022/10/18 11:17:40;;;;;;;;;;;19.80;99.90;;;;;;5000242;28;19968;-64
2022/10/18 11:20:08;;;;;;;;;;;20.00;99.90;;;;;;4999652;28;19918;-62
2022/10/18 11:22:43;;;;;;;;;;;20.10;99.90;;;;;;5002855;28;19909;-63
2022/10/18 11:25:12;;;;;;;;;;;20.30;99.90;;;;;;5000462;28;19917;-62
2022/10/18 11:27:37;;;;;;;;;;;20.50;99.90;;;;;;5005076;28;19994;-62
2022/10/18 11:30:14;;;;;;;;;;;20.70;99.90;;;;;;4998571;28;20215;-63
2022/10/18 11:32:40;;;;;;;;;;;21.00;99.90;;;;;;4992326;28;20048;-63
2022/10/18 11:35:18;;;;;;;;;;;21.00;99.90;;;;;;5004080;28;20014;-63
2022/10/18 11:37:55;;;;;;;;;;;20.90;99.90;;;;;;5000003;28;19917;-63
2022/10/18 11:40:24;;;;;;;;;;;21.10;99.90;;;;;;5016750;28;19917;-64
2022/10/18 11:42:59;;;;;;;;;;;21.10;99.90;;;;;;5002739;28;19909;-63
2022/10/18 11:45:43;;;;;;;;;;;21.60;99.90;;;;;;5003784;28;19921;-64
2022/10/18 11:48:27;;;;;;;;;;;21.60;99.90;;;;;;4998801;28;20000;-64
2022/10/18 11:50:59;;;;;;;;;;;21.70;99.90;;;;;;5000662;28;19916;-63
2022/10/18 11:53:39;;;;;;;;;;;21.80;99.90;;;;;;5006209;28;19913;-63
2022/10/18 11:56:26;;;;;;;;;;;22.20;99.90;;;;;;5004281;28;19917;-65
2022/10/18 11:59:01;;;;;;;;;;;22.40;99.90;;;;;;4997643;28;20250;-63
2022/10/18 12:01:33;;;;;;;;;;;22.30;99.90;;;;;;5007564;28;20365;-64
2022/10/18 12:04:06;;;;;;;;;;;22.40;99.90;;;;;;5003518;28;19909;-64
2022/10/18 12:06:34;;;;;;;;;;;22.70;99.90;;;;;;5003870;28;19917;-65
2022/10/18 12:09:18;;;;;;;;;;;22.80;99.90;;;;;;5004803;28;20056;-63
2022/10/18 12:11:50;;;;;;;;;;;22.80;99.90;;;;;;5012222;28;20417;-63
2022/10/18 12:14:24;;;;;;;;;;;22.80;99.90;;;;;;5009664;28;19917;-64
2022/10/18 12:16:50;;;;;;;;;;;23.20;99.90;;;;;;5006253;28;19932;-66
2022/10/18 12:19:23;;;;;;;;;;;23.30;99.90;;;;;;5005534;28;19967;-63
2022/10/18 12:21:50;;;;;;;;;;;23.30;99.90;;;;;;5008651;28;19921;-63
2022/10/18 12:24:18;;;;;;;;;;;23.30;99.90;;;;;;5005804;28;19913;-63
2022/10/18 12:26:47;;;;;;;;;;;23.40;99.90;;;;;;5000063;28;19936;-63
2022/10/18 12:29:17;;;;;;;;;;;23.40;99.90;;;;;;5003097;28;19910;-62
2022/10/18 12:31:53;;;;;;;;;;;23.60;99.90;;;;;;5008452;28;19932;-63
2022/10/18 12:34:25;;;;;;;;;;;23.70;99.90;;;;;;5004667;28;19932;-62
2022/10/18 12:37:08;;;;;;;;;;;23.50;99.90;;;;;;5010269;28;19910;-64
2022/10/18 12:39:39;;;;;;;;;;;23.30;99.90;;;;;;5001471;28;19967;-64
2022/10/18 12:42:05;;;;;;;;;;;23.40;99.90;;;;;;4995429;28;19910;-62
2022/10/18 12:44:31;;;;;;;;;;;23.50;99.90;;;;;;5008902;28;19960;-62
2022/10/18 12:46:58;;;;;;;;;;;23.60;99.90;;;;;;5002080;28;19909;-63
2022/10/18 12:49:30;;;;;;;;;;;23.80;99.90;;;;;;5004573;28;19922;-63
2022/10/18 12:51:58;;;;;;;;;;;24.00;99.90;;;;;;5009171;28;20356;-64
2022/10/18 12:54:26;;;;;;;;;;;24.20;99.90;;;;;;5010916;28;19912;-64
2022/10/18 12:56:52;;;;;;;;;;;24.50;99.90;;;;;;5004166;28;20371;-64
2022/10/18 12:59:18;;;;;;;;;;;24.20;99.90;;;;;;5006605;28;20036;-64
2022/10/18 13:02:03;;;;;;;;;;;24.10;99.90;;;;;;5005975;28;20019;-63
2022/10/18 13:04:31;;;;;;;;;;;24.10;99.90;;;;;;4998490;28;19988;-61
2022/10/18 13:06:59;;;;;;;;;;;24.30;99.90;;;;;;5002450;28;19909;-63
2022/10/18 13:09:25;;;;;;;;;;;24.20;99.90;;;;;;4999226;28;19941;-63
2022/10/18 13:11:53;;;;;;;;;;;24.30;99.90;;;;;;5005343;28;19909;-64
2022/10/18 13:14:24;;;;;;;;;;;24.70;99.90;;;;;;5001343;28;19920;-63
2022/10/18 13:17:09;;;;;;;;;;;24.90;99.90;;;;;;5005856;28;19910;-64
2022/10/18 13:19:48;;;;;;;;;;;24.80;99.90;;;;;;5003530;28;19997;-64
2022/10/18 13:22:32;;;;;;;;;;;24.80;99.90;;;;;;5004935;28;19909;-64
2022/10/18 13:25:04;;;;;;;;;;;24.80;99.90;;;;;;5007396;28;19909;-64
2022/10/18 13:27:38;;;;;;;;;;;25.50;99.90;;;;;;5005062;28;20316;-63
2022/10/18 13:30:10;;;;;;;;;;;25.90;99.90;;;;;;5006430;28;19910;-64
2022/10/18 13:32:45;;;;;;;;;;;26.00;99.90;;;;;;5006246;28;19952;-64
2022/10/18 13:35:29;;;;;;;;;;;26.20;99.90;;;;;;5003724;28;19910;-65
2022/10/18 13:37:58;;;;;;;;;;;26.30;99.90;;;;;;5006362;28;19963;-63
2022/10/18 13:40:24;;;;;;;;;;;26.30;99.90;;;;;;5007741;28;19924;-62
2022/10/18 13:42:50;;;;;;;;;;;26.10;99.90;;;;;;5008609;28;19932;-63
2022/10/18 13:45:27;;;;;;;;;;;26.00;99.90;;;;;;5006097;28;20300;-63
2022/10/18 13:47:53;;;;;;;;;;;26.10;99.90;;;;;;5004126;28;19917;-63
2022/10/18 13:50:25;;;;;;;;;;;26.40;99.90;;;;;;5001283;28;19913;-64
2022/10/18 13:53:07;;;;;;;;;;;27.00;99.50;;;;;;5008061;28;19909;-64
2022/10/18 13:55:42;;;;;;;;;;;26.90;98.70;;;;;;4999931;28;20361;-60
2022/10/18 13:58:30;;;;;;;;;;;26.80;98.30;;;;;;5005129;28;19933;-61
2022/10/18 14:00:59;;;;;;;;;;;26.90;98.40;;;;;;4994159;28;19917;-60
2022/10/18 14:03:27;;;;;;;;;;;27.00;97.90;;;;;;5004786;28;19981;-61
2022/10/18 14:05:56;;;;;;;;;;;27.30;96.90;;;;;;5002186;28;19920;-60
2022/10/18 14:08:31;;;;;;;;;;;27.20;95.80;;;;;;5003821;28;19915;-60
2022/10/18 14:11:04;;;;;;;;;;;26.30;96.90;;;;;;4998610;28;19909;-59
2022/10/18 14:13:36;;;;;;;;;;;26.20;97.50;;;;;;4998936;28;20361;-60
2022/10/18 14:16:09;;;;;;;;;;;26.30;97.30;;;;;;5005225;28;19921;-60
2022/10/18 14:18:36;;;;;;;;;;;26.50;97.10;;;;;;4997319;28;19913;-62
2022/10/18 14:21:04;;;;;;;;;;;26.60;96.90;;;;;;5001544;28;19917;-59
2022/10/18 14:23:44;;;;;;;;;;;25.90;97.30;;;;;;5002953;28;19910;-60
2022/10/18 14:26:18;;;;;;;;;;;24.90;99.10;;;;;;5000975;28;19913;-59
2022/10/18 14:28:44;;;;;;;;;;;24.50;99.90;;;;;;5007636;28;19917;-59
2022/10/18 14:31:12;;;;;;;;;;;24.20;99.90;;;;;;5005769;28;20258;-59
2022/10/18 14:33:53;;;;;;;;;;;24.10;99.90;;;;;;5006334;28;20464;-60